sensor_id;sensor_type;location;lat;lon;timestamp;temperature;humidity
15615;DHT22;7907;51.368;6.730;2022-07-29T00:01:55;21.30;63.80
15615;DHT22;7907;51.368;6.730;2022-07-29T00:04:22;21.30;63.80
15615;DHT22;7907;51.368;6.730;2022-07-29T00:06:49;21.30;64.00
15615;DHT22;7907;51.368;6.730;2022-07-29T00:09:23;21.30;64.10
15615;DHT22;7907;51.368;6.730;2022-07-29T00:12:01;21.30;64.00
15615;DHT22;7907;51.368;6.730;2022-07-29T00:14:30;21.30;64.10
15615;DHT22;7907;51.368;6.730;2022-07-29T00:17:00;21.30;64.20
15615;DHT22;7907;51.368;6.730;2022-07-29T00:19:35;21.30;64.20
15615;DHT22;7907;51.368;6.730;2022-07-29T00:22:07;21.20;64.10
15615;DHT22;7907;51.368;6.730;2022-07-29T00:25:05;21.20;64.10
15615;DHT22;7907;51.368;6.730;2022-07-29T00:27:37;21.20;64.30
15615;DHT22;7907;51.368;6.730;2022-07-29T00:30:09;21.20;64.30
15615;DHT22;7907;51.368;6.730;2022-07-29T00:32:37;21.20;64.40
15615;DHT22;7907;51.368;6.730;2022-07-29T00:35:06;21.20;64.40
15615;DHT22;7907;51.368;6.730;2022-07-29T00:38:02;21.20;64.40
15615;DHT22;7907;51.368;6.730;2022-07-29T00:40:44;21.10;64.40
15615;DHT22;7907;51.368;6.730;2022-07-29T00:43:26;21.10;64.60
15615;DHT22;7907;51.368;6.730;2022-07-29T00:45:59;21.10;64.70
15615;DHT22;7907;51.368;6.730;2022-07-29T00:48:26;21.10;64.70
15615;DHT22;7907;51.368;6.730;2022-07-29T00:50:54;21.10;64.90
15615;DHT22;7907;51.368;6.730;2022-07-29T00:53:22;21.10;65.00
15615;DHT22;7907;51.368;6.730;2022-07-29T00:55:53;21.10;65.00
15615;DHT22;7907;51.368;6.730;2022-07-29T00:58:30;21.10;65.00
15615;DHT22;7907;51.368;6.730;2022-07-29T01:01:00;21.00;64.90
15615;DHT22;7907;51.368;6.730;2022-07-29T01:03:28;21.00;65.10
15615;DHT22;7907;51.368;6.730;2022-07-29T01:05:55;21.00;65.10
15615;DHT22;7907;51.368;6.730;2022-07-29T01:08:41;21.00;65.70
15615;DHT22;7907;51.368;6.730;2022-07-29T01:11:15;21.00;65.30
15615;DHT22;7907;51.368;6.730;2022-07-29T01:13:44;21.00;65.20
15615;DHT22;7907;51.368;6.730;2022-07-29T01:16:32;21.00;65.40
15615;DHT22;7907;51.368;6.730;2022-07-29T01:19:30;21.00;65.40
15615;DHT22;7907;51.368;6.730;2022-07-29T01:22:18;21.00;65.50
15615;DHT22;7907;51.368;6.730;2022-07-29T01:25:28;21.00;65.40
15615;DHT22;7907;51.368;6.730;2022-07-29T01:28:13;20.90;65.40
15615;DHT22;7907;51.368;6.730;2022-07-29T01:30:59;21.00;65.50
15615;DHT22;7907;51.368;6.730;2022-07-29T01:33:57;20.90;65.50
15615;DHT22;7907;51.368;6.730;2022-07-29T01:36:47;20.90;65.50
15615;DHT22;7907;51.368;6.730;2022-07-29T01:39:21;20.90;65.70
15615;DHT22;7907;51.368;6.730;2022-07-29T01:42:20;20.90;65.80
15615;DHT22;7907;51.368;6.730;2022-07-29T01:45:14;20.80;65.90
15615;DHT22;7907;51.368;6.730;2022-07-29T01:47:59;20.80;66.10
15615;DHT22;7907;51.368;6.730;2022-07-29T01:50:35;20.80;66.20
15615;DHT22;7907;51.368;6.730;2022-07-29T01:53:12;20.80;66.40
15615;DHT22;7907;51.368;6.730;2022-07-29T01:55:44;20.80;66.40
15615;DHT22;7907;51.368;6.730;2022-07-29T01:58:12;20.80;66.40
15615;DHT22;7907;51.368;6.730;2022-07-29T02:00:40;20.80;66.50
15615;DHT22;7907;51.368;6.730;2022-07-29T02:03:19;20.80;66.50
15615;DHT22;7907;51.368;6.730;2022-07-29T02:06:15;20.80;66.50
15615;DHT22;7907;51.368;6.730;2022-07-29T02:08:45;20.80;66.50
15615;DHT22;7907;51.368;6.730;2022-07-29T02:11:22;20.80;66.50
15615;DHT22;7907;51.368;6.730;2022-07-29T02:13:55;20.70;66.60
15615;DHT22;7907;51.368;6.730;2022-07-29T02:30:19;20.40;67.00
15615;DHT22;7907;51.368;6.730;2022-07-29T04:06:06;18.20;99.90
15615;DHT22;7907;51.368;6.730;2022-07-29T04:08:48;17.90;99.90
15615;DHT22;7907;51.368;6.730;2022-07-29T04:11:15;17.80;99.90
15615;DHT22;7907;51.368;6.730;2022-07-29T04:13:43;17.80;99.90
15615;DHT22;7907;51.368;6.730;2022-07-29T04:16:11;17.80;99.90
15615;DHT22;7907;51.368;6.730;2022-07-29T04:18:38;17.80;99.90
15615;DHT22;7907;51.368;6.730;2022-07-29T04:21:08;17.80;99.90
15615;DHT22;7907;51.368;6.730;2022-07-29T04:23:35;17.90;99.90
15615;DHT22;7907;51.368;6.730;2022-07-29T04:26:04;18.00;99.90
15615;DHT22;7907;51.368;6.730;2022-07-29T04:28:35;18.00;99.90
15615;DHT22;7907;51.368;6.730;2022-07-29T04:31:05;18.10;99.90
15615;DHT22;7907;51.368;6.730;2022-07-29T04:33:32;18.20;99.90
15615;DHT22;7907;51.368;6.730;2022-07-29T04:35:59;18.30;99.90
15615;DHT22;7907;51.368;6.730;2022-07-29T04:38:28;18.30;99.90
15615;DHT22;7907;51.368;6.730;2022-07-29T04:40:55;18.40;99.90
15615;DHT22;7907;51.368;6.730;2022-07-29T04:43:23;18.50;99.90
15615;DHT22;7907;51.368;6.730;2022-07-29T04:45:50;18.60;99.90
15615;DHT22;7907;51.368;6.730;2022-07-29T04:48:18;18.60;99.90
15615;DHT22;7907;51.368;6.730;2022-07-29T04:50:47;18.60;99.90
15615;DHT22;7907;51.368;6.730;2022-07-29T04:53:14;18.60;99.90
15615;DHT22;7907;51.368;6.730;2022-07-29T04:55:52;18.70;99.90
15615;DHT22;7907;51.368;6.730;2022-07-29T04:58:29;18.70;99.90
15615;DHT22;7907;51.368;6.730;2022-07-29T05:01:04;18.60;99.90
15615;DHT22;7907;51.368;6.730;2022-07-29T05:03:31;18.60;99.90
15615;DHT22;7907;51.368;6.730;2022-07-29T05:05:59;18.60;99.90
15615;DHT22;7907;51.368;6.730;2022-07-29T05:08:27;18.70;99.90
15615;DHT22;7907;51.368;6.730;2022-07-29T05:11:08;18.50;99.90
15615;DHT22;7907;51.368;6.730;2022-07-29T05:13:36;18.50;99.90
15615;DHT22;7907;51.368;6.730;2022-07-29T05:16:04;18.50;99.90
15615;DHT22;7907;51.368;6.730;2022-07-29T05:18:31;18.40;99.90
15615;DHT22;7907;51.368;6.730;2022-07-29T05:20:59;18.40;99.90
15615;DHT22;7907;51.368;6.730;2022-07-29T05:23:27;18.50;99.90
15615;DHT22;7907;51.368;6.730;2022-07-29T05:25:54;18.60;99.90
15615;DHT22;7907;51.368;6.730;2022-07-29T05:28:23;18.70;99.90
15615;DHT22;7907;51.368;6.730;2022-07-29T05:30:50;18.80;99.90
15615;DHT22;7907;51.368;6.730;2022-07-29T05:33:17;18.80;99.90
15615;DHT22;7907;51.368;6.730;2022-07-29T05:35:44;18.90;99.90
15615;DHT22;7907;51.368;6.730;2022-07-29T05:38:12;18.90;99.90
15615;DHT22;7907;51.368;6.730;2022-07-29T05:40:42;19.00;99.90
15615;DHT22;7907;51.368;6.730;2022-07-29T05:43:10;19.00;99.90
15615;DHT22;7907;51.368;6.730;2022-07-29T05:45:40;19.00;99.90
15615;DHT22;7907;51.368;6.730;2022-07-29T05:48:07;19.10;99.90
15615;DHT22;7907;51.368;6.730;2022-07-29T05:50:34;19.10;99.90
15615;DHT22;7907;51.368;6.730;2022-07-29T05:53:06;19.10;99.90
15615;DHT22;7907;51.368;6.730;2022-07-29T05:55:38;19.10;99.90
15615;DHT22;7907;51.368;6.730;2022-07-29T05:58:05;19.10;99.90
15615;DHT22;7907;51.368;6.730;2022-07-29T06:00:32;19.10;99.90
15615;DHT22;7907;51.368;6.730;2022-07-29T06:03:02;19.20;99.90
15615;DHT22;7907;51.368;6.730;2022-07-29T06:05:35;19.20;99.90
15615;DHT22;7907;51.368;6.730;2022-07-29T06:08:02;19.30;99.90
15615;DHT22;7907;51.368;6.730;2022-07-29T06:10:32;19.30;99.90
15615;DHT22;7907;51.368;6.730;2022-07-29T06:13:11;19.40;99.90
15615;DHT22;7907;51.368;6.730;2022-07-29T06:15:38;19.40;99.90
15615;DHT22;7907;51.368;6.730;2022-07-29T06:18:07;19.50;99.90
15615;DHT22;7907;51.368;6.730;2022-07-29T06:20:37;19.60;99.90
15615;DHT22;7907;51.368;6.730;2022-07-29T06:23:07;19.70;99.90
15615;DHT22;7907;51.368;6.730;2022-07-29T06:25:37;19.80;99.90
15615;DHT22;7907;51.368;6.730;2022-07-29T06:28:11;19.90;99.90
15615;DHT22;7907;51.368;6.730;2022-07-29T06:30:45;19.90;99.90
15615;DHT22;7907;51.368;6.730;2022-07-29T06:33:23;20.00;99.90
15615;DHT22;7907;51.368;6.730;2022-07-29T06:36:13;19.90;99.90
15615;DHT22;7907;51.368;6.730;2022-07-29T06:39:04;19.90;99.90
15615;DHT22;7907;51.368;6.730;2022-07-29T06:41:32;19.90;99.90
15615;DHT22;7907;51.368;6.730;2022-07-29T06:44:16;19.80;99.90
15615;DHT22;7907;51.368;6.730;2022-07-29T06:47:44;19.70;99.90
15615;DHT22;7907;51.368;6.730;2022-07-29T06:57:25;19.40;99.90
15615;DHT22;7907;51.368;6.730;2022-07-29T07:00:13;19.20;99.90
15615;DHT22;7907;51.368;6.730;2022-07-29T07:03:00;19.00;99.90
15615;DHT22;7907;51.368;6.730;2022-07-29T07:06:05;18.90;99.90
15615;DHT22;7907;51.368;6.730;2022-07-29T07:09:07;18.90;99.90
15615;DHT22;7907;51.368;6.730;2022-07-29T07:21:35;18.80;99.90
15615;DHT22;7907;51.368;6.730;2022-07-29T07:24:14;18.80;99.90
15615;DHT22;7907;51.368;6.730;2022-07-29T07:30:14;18.80;99.90
15615;DHT22;7907;51.368;6.730;2022-07-29T07:52:12;19.20;99.90
15615;DHT22;7907;51.368;6.730;2022-07-29T07:54:56;19.30;99.90
15615;DHT22;7907;51.368;6.730;2022-07-29T07:57:52;19.30;99.90
15615;DHT22;7907;51.368;6.730;2022-07-29T08:00:32;19.40;99.90
15615;DHT22;7907;51.368;6.730;2022-07-29T08:03:00;19.50;99.90
15615;DHT22;7907;51.368;6.730;2022-07-29T08:05:29;19.50;99.90
15615;DHT22;7907;51.368;6.730;2022-07-29T08:08:01;19.60;99.90
15615;DHT22;7907;51.368;6.730;2022-07-29T08:10:43;19.70;99.90
15615;DHT22;7907;51.368;6.730;2022-07-29T08:13:26;19.80;99.90
15615;DHT22;7907;51.368;6.730;2022-07-29T08:15:56;19.90;99.90
15615;DHT22;7907;51.368;6.730;2022-07-29T08:18:28;19.90;99.90
15615;DHT22;7907;51.368;6.730;2022-07-29T08:20:56;20.00;99.90
15615;DHT22;7907;51.368;6.730;2022-07-29T08:23:37;20.00;99.90
15615;DHT22;7907;51.368;6.730;2022-07-29T08:26:13;20.00;99.90
15615;DHT22;7907;51.368;6.730;2022-07-29T08:28:45;20.10;99.90
15615;DHT22;7907;51.368;6.730;2022-07-29T08:31:16;20.30;99.90
15615;DHT22;7907;51.368;6.730;2022-07-29T08:33:44;20.30;99.90
15615;DHT22;7907;51.368;6.730;2022-07-29T08:36:11;20.40;99.90
15615;DHT22;7907;51.368;6.730;2022-07-29T08:38:41;20.50;99.90
15615;DHT22;7907;51.368;6.730;2022-07-29T08:41:08;20.50;99.90
15615;DHT22;7907;51.368;6.730;2022-07-29T08:43:36;20.60;99.90
15615;DHT22;7907;51.368;6.730;2022-07-29T08:46:03;20.70;99.90
15615;DHT22;7907;51.368;6.730;2022-07-29T08:48:39;20.80;99.90
15615;DHT22;7907;51.368;6.730;2022-07-29T08:51:23;20.90;99.90
15615;DHT22;7907;51.368;6.730;2022-07-29T08:54:03;21.00;99.90
15615;DHT22;7907;51.368;6.730;2022-07-29T08:56:32;21.10;99.90
15615;DHT22;7907;51.368;6.730;2022-07-29T08:59:05;21.10;99.90
15615;DHT22;7907;51.368;6.730;2022-07-29T09:01:33;21.10;99.90
15615;DHT22;7907;51.368;6.730;2022-07-29T09:04:21;21.20;99.90
15615;DHT22;7907;51.368;6.730;2022-07-29T09:07:14;21.30;99.90
15615;DHT22;7907;51.368;6.730;2022-07-29T09:09:51;21.20;99.90
15615;DHT22;7907;51.368;6.730;2022-07-29T09:12:30;21.00;99.90
15615;DHT22;7907;51.368;6.730;2022-07-29T09:14:57;21.10;99.90
15615;DHT22;7907;51.368;6.730;2022-07-29T09:17:39;21.00;99.90
15615;DHT22;7907;51.368;6.730;2022-07-29T09:20:11;20.90;99.90
15615;DHT22;7907;51.368;6.730;2022-07-29T09:22:38;21.00;99.90
15615;DHT22;7907;51.368;6.730;2022-07-29T09:25:13;21.00;99.90
15615;DHT22;7907;51.368;6.730;2022-07-29T09:27:40;21.00;99.90
15615;DHT22;7907;51.368;6.730;2022-07-29T09:30:08;21.00;99.90
15615;DHT22;7907;51.368;6.730;2022-07-29T09:32:55;21.00;99.90
15615;DHT22;7907;51.368;6.730;2022-07-29T09:35:25;21.00;99.90
15615;DHT22;7907;51.368;6.730;2022-07-29T09:37:52;21.00;99.90
15615;DHT22;7907;51.368;6.730;2022-07-29T09:40:23;21.00;99.90
15615;DHT22;7907;51.368;6.730;2022-07-29T09:42:51;21.00;99.90
15615;DHT22;7907;51.368;6.730;2022-07-29T09:45:28;20.90;99.90
15615;DHT22;7907;51.368;6.730;2022-07-29T09:47:56;20.90;99.90
15615;DHT22;7907;51.368;6.730;2022-07-29T09:50:35;20.80;99.90
15615;DHT22;7907;51.368;6.730;2022-07-29T09:53:02;20.70;99.90
15615;DHT22;7907;51.368;6.730;2022-07-29T09:55:32;20.60;99.90
15615;DHT22;7907;51.368;6.730;2022-07-29T09:58:17;20.60;99.90
15615;DHT22;7907;51.368;6.730;2022-07-29T10:00:45;20.70;99.90
15615;DHT22;7907;51.368;6.730;2022-07-29T10:03:13;20.70;99.90
15615;DHT22;7907;51.368;6.730;2022-07-29T10:05:41;20.70;99.90
15615;DHT22;7907;51.368;6.730;2022-07-29T10:08:09;20.90;99.90
15615;DHT22;7907;51.368;6.730;2022-07-29T10:10:40;21.00;99.90
15615;DHT22;7907;51.368;6.730;2022-07-29T10:13:10;21.20;99.90
15615;DHT22;7907;51.368;6.730;2022-07-29T10:15:40;21.40;99.90
15615;DHT22;7907;51.368;6.730;2022-07-29T10:18:10;21.60;99.90
15615;DHT22;7907;51.368;6.730;2022-07-29T10:20:39;21.80;99.90
15615;DHT22;7907;51.368;6.730;2022-07-29T10:23:06;22.10;99.90
15615;DHT22;7907;51.368;6.730;2022-07-29T10:25:35;22.20;99.90
15615;DHT22;7907;51.368;6.730;2022-07-29T10:28:05;22.30;99.90
15615;DHT22;7907;51.368;6.730;2022-07-29T10:30:33;22.40;99.90
15615;DHT22;7907;51.368;6.730;2022-07-29T10:33:22;22.50;99.90
15615;DHT22;7907;51.368;6.730;2022-07-29T10:36:11;22.60;99.90
15615;DHT22;7907;51.368;6.730;2022-07-29T10:38:49;22.60;99.90
15615;DHT22;7907;51.368;6.730;2022-07-29T10:41:43;22.60;99.90
15615;DHT22;7907;51.368;6.730;2022-07-29T10:44:19;22.50;99.90
15615;DHT22;7907;51.368;6.730;2022-07-29T10:46:48;22.50;99.90
15615;DHT22;7907;51.368;6.730;2022-07-29T10:49:20;22.50;99.90
15615;DHT22;7907;51.368;6.730;2022-07-29T10:52:03;22.60;99.90
15615;DHT22;7907;51.368;6.730;2022-07-29T10:54:45;22.70;99.90
15615;DHT22;7907;51.368;6.730;2022-07-29T10:57:31;22.80;99.90
15615;DHT22;7907;51.368;6.730;2022-07-29T11:00:32;22.80;99.90
15615;DHT22;7907;51.368;6.730;2022-07-29T11:03:00;22.90;99.90
15615;DHT22;7907;51.368;6.730;2022-07-29T11:05:27;23.00;99.90
15615;DHT22;7907;51.368;6.730;2022-07-29T11:08:18;23.00;98.90
15615;DHT22;7907;51.368;6.730;2022-07-29T11:10:49;23.10;98.20
15615;DHT22;7907;51.368;6.730;2022-07-29T11:13:45;23.30;98.10
15615;DHT22;7907;51.368;6.730;2022-07-29T11:16:15;23.30;98.10
15615;DHT22;7907;51.368;6.730;2022-07-29T11:19:22;23.50;96.60
15615;DHT22;7907;51.368;6.730;2022-07-29T11:21:49;23.70;96.30
15615;DHT22;7907;51.368;6.730;2022-07-29T11:24:20;23.80;95.80
15615;DHT22;7907;51.368;6.730;2022-07-29T11:27:15;23.80;98.90
15615;DHT22;7907;51.368;6.730;2022-07-29T11:29:51;24.00;98.70
15615;DHT22;7907;51.368;6.730;2022-07-29T11:32:21;23.90;98.90
15615;DHT22;7907;51.368;6.730;2022-07-29T11:34:49;23.90;97.30
15615;DHT22;7907;51.368;6.730;2022-07-29T11:37:36;24.00;96.40
15615;DHT22;7907;51.368;6.730;2022-07-29T11:40:24;24.00;97.70
15615;DHT22;7907;51.368;6.730;2022-07-29T11:42:54;24.10;97.10
15615;DHT22;7907;51.368;6.730;2022-07-29T11:45:26;24.10;97.60
15615;DHT22;7907;51.368;6.730;2022-07-29T11:48:07;24.20;97.50
15615;DHT22;7907;51.368;6.730;2022-07-29T11:50:41;24.40;96.80
15615;DHT22;7907;51.368;6.730;2022-07-29T11:53:11;24.60;95.90
15615;DHT22;7907;51.368;6.730;2022-07-29T11:55:42;24.60;95.70
15615;DHT22;7907;51.368;6.730;2022-07-29T11:58:09;24.70;94.70
15615;DHT22;7907;51.368;6.730;2022-07-29T12:00:39;24.80;93.50
15615;DHT22;7907;51.368;6.730;2022-07-29T12:03:08;24.60;93.10
15615;DHT22;7907;51.368;6.730;2022-07-29T12:05:39;24.60;92.60
15615;DHT22;7907;51.368;6.730;2022-07-29T12:08:09;24.50;92.60
15615;DHT22;7907;51.368;6.730;2022-07-29T12:10:37;24.50;93.10
15615;DHT22;7907;51.368;6.730;2022-07-29T12:13:04;24.50;91.40
15615;DHT22;7907;51.368;6.730;2022-07-29T12:15:34;24.50;91.90
15615;DHT22;7907;51.368;6.730;2022-07-29T12:18:14;24.50;92.30
15615;DHT22;7907;51.368;6.730;2022-07-29T12:20:42;24.50;92.70
15615;DHT22;7907;51.368;6.730;2022-07-29T12:23:13;24.50;92.10
15615;DHT22;7907;51.368;6.730;2022-07-29T12:25:47;24.70;91.10
15615;DHT22;7907;51.368;6.730;2022-07-29T12:28:14;24.90;91.60
15615;DHT22;7907;51.368;6.730;2022-07-29T12:30:45;25.20;91.50
15615;DHT22;7907;51.368;6.730;2022-07-29T12:33:18;25.40;91.40
15615;DHT22;7907;51.368;6.730;2022-07-29T12:35:48;25.40;88.60
15615;DHT22;7907;51.368;6.730;2022-07-29T12:38:16;25.50;89.60
15615;DHT22;7907;51.368;6.730;2022-07-29T12:40:45;25.30;86.70
15615;DHT22;7907;51.368;6.730;2022-07-29T12:43:14;25.00;86.70
15615;DHT22;7907;51.368;6.730;2022-07-29T12:45:43;24.80;89.50
15615;DHT22;7907;51.368;6.730;2022-07-29T12:48:11;24.90;88.10
15615;DHT22;7907;51.368;6.730;2022-07-29T12:50:55;24.80;88.70
15615;DHT22;7907;51.368;6.730;2022-07-29T12:53:22;24.80;89.10
15615;DHT22;7907;51.368;6.730;2022-07-29T12:55:51;24.80;88.80
15615;DHT22;7907;51.368;6.730;2022-07-29T12:58:28;25.00;87.90
15615;DHT22;7907;51.368;6.730;2022-07-29T13:01:08;25.30;86.20
15615;DHT22;7907;51.368;6.730;2022-07-29T13:03:48;25.80;86.70
15615;DHT22;7907;51.368;6.730;2022-07-29T13:06:31;26.20;82.50
15615;DHT22;7907;51.368;6.730;2022-07-29T13:09:00;26.50;81.00
15615;DHT22;7907;51.368;6.730;2022-07-29T13:11:29;26.50;79.60
15615;DHT22;7907;51.368;6.730;2022-07-29T13:13:56;26.80;80.30
15615;DHT22;7907;51.368;6.730;2022-07-29T13:16:24;27.20;77.50
15615;DHT22;7907;51.368;6.730;2022-07-29T13:19:06;27.50;75.70
15615;DHT22;7907;51.368;6.730;2022-07-29T13:21:35;27.90;75.40
15615;DHT22;7907;51.368;6.730;2022-07-29T13:24:11;28.30;72.80
15615;DHT22;7907;51.368;6.730;2022-07-29T13:26:40;28.60;71.30
15615;DHT22;7907;51.368;6.730;2022-07-29T13:29:07;28.80;71.00
15615;DHT22;7907;51.368;6.730;2022-07-29T13:31:35;29.20;68.80
15615;DHT22;7907;51.368;6.730;2022-07-29T13:34:13;29.60;67.70
15615;DHT22;7907;51.368;6.730;2022-07-29T13:36:42;30.00;66.30
15615;DHT22;7907;51.368;6.730;2022-07-29T13:39:09;30.10;64.60
15615;DHT22;7907;51.368;6.730;2022-07-29T13:41:36;30.10;63.40
15615;DHT22;7907;51.368;6.730;2022-07-29T13:44:04;30.30;63.10
15615;DHT22;7907;51.368;6.730;2022-07-29T13:46:31;30.60;62.20
15615;DHT22;7907;51.368;6.730;2022-07-29T13:48:58;30.30;60.90
15615;DHT22;7907;51.368;6.730;2022-07-29T13:51:25;30.30;61.60
15615;DHT22;7907;51.368;6.730;2022-07-29T13:53:53;30.40;60.60
15615;DHT22;7907;51.368;6.730;2022-07-29T13:56:23;30.30;60.60
15615;DHT22;7907;51.368;6.730;2022-07-29T13:58:50;30.40;61.00
15615;DHT22;7907;51.368;6.730;2022-07-29T14:01:17;30.70;59.60
15615;DHT22;7907;51.368;6.730;2022-07-29T14:03:44;31.00;58.50
15615;DHT22;7907;51.368;6.730;2022-07-29T14:06:11;31.10;58.20
15615;DHT22;7907;51.368;6.730;2022-07-29T14:08:38;31.20;58.10
15615;DHT22;7907;51.368;6.730;2022-07-29T14:11:07;31.40;56.20
15615;DHT22;7907;51.368;6.730;2022-07-29T14:13:34;31.50;56.30
15615;DHT22;7907;51.368;6.730;2022-07-29T14:16:01;31.60;56.20
15615;DHT22;7907;51.368;6.730;2022-07-29T14:18:28;31.40;55.30
15615;DHT22;7907;51.368;6.730;2022-07-29T14:20:56;31.20;55.30
15615;DHT22;7907;51.368;6.730;2022-07-29T14:23:23;31.20;55.40
15615;DHT22;7907;51.368;6.730;2022-07-29T14:25:54;31.30;56.30
15615;DHT22;7907;51.368;6.730;2022-07-29T14:28:23;31.80;54.70
15615;DHT22;7907;51.368;6.730;2022-07-29T14:30:50;32.10;54.30
15615;DHT22;7907;51.368;6.730;2022-07-29T14:33:20;31.90;53.90
15615;DHT22;7907;51.368;6.730;2022-07-29T14:35:47;31.60;55.10
15615;DHT22;7907;51.368;6.730;2022-07-29T14:38:14;31.70;54.10
15615;DHT22;7907;51.368;6.730;2022-07-29T14:40:42;31.80;54.20
15615;DHT22;7907;51.368;6.730;2022-07-29T14:43:09;32.40;53.50
15615;DHT22;7907;51.368;6.730;2022-07-29T14:45:37;32.60;52.80
15615;DHT22;7907;51.368;6.730;2022-07-29T14:48:05;32.70;52.40
15615;DHT22;7907;51.368;6.730;2022-07-29T14:50:32;32.70;52.70
15615;DHT22;7907;51.368;6.730;2022-07-29T14:52:59;33.00;52.60
15615;DHT22;7907;51.368;6.730;2022-07-29T14:55:26;33.50;51.30
15615;DHT22;7907;51.368;6.730;2022-07-29T14:57:53;33.90;50.30
15615;DHT22;7907;51.368;6.730;2022-07-29T15:00:21;34.40;48.30
15615;DHT22;7907;51.368;6.730;2022-07-29T15:02:50;34.00;47.50
15615;DHT22;7907;51.368;6.730;2022-07-29T15:05:17;34.40;47.60
15615;DHT22;7907;51.368;6.730;2022-07-29T15:07:44;34.10;47.00
15615;DHT22;7907;51.368;6.730;2022-07-29T15:10:11;34.10;47.30
15615;DHT22;7907;51.368;6.730;2022-07-29T15:12:39;34.10;46.60
15615;DHT22;7907;51.368;6.730;2022-07-29T15:15:07;34.00;46.80
15615;DHT22;7907;51.368;6.730;2022-07-29T15:17:34;34.20;45.50
15615;DHT22;7907;51.368;6.730;2022-07-29T15:20:03;34.30;45.60
15615;DHT22;7907;51.368;6.730;2022-07-29T15:22:30;34.40;44.80
15615;DHT22;7907;51.368;6.730;2022-07-29T15:24:57;34.90;44.50
15615;DHT22;7907;51.368;6.730;2022-07-29T15:27:24;35.00;43.90
15615;DHT22;7907;51.368;6.730;2022-07-29T15:29:51;35.30;43.70
15615;DHT22;7907;51.368;6.730;2022-07-29T15:32:18;35.70;42.10
15615;DHT22;7907;51.368;6.730;2022-07-29T15:34:45;36.10;41.50
15615;DHT22;7907;51.368;6.730;2022-07-29T15:37:14;36.30;39.90
15615;DHT22;7907;51.368;6.730;2022-07-29T15:39:41;36.60;39.00
15615;DHT22;7907;51.368;6.730;2022-07-29T15:42:24;36.80;38.80
15615;DHT22;7907;51.368;6.730;2022-07-29T15:44:51;36.50;39.60
15615;DHT22;7907;51.368;6.730;2022-07-29T15:47:19;36.20;40.30
15615;DHT22;7907;51.368;6.730;2022-07-29T15:49:50;35.80;39.30
15615;DHT22;7907;51.368;6.730;2022-07-29T15:52:19;35.40;40.20
15615;DHT22;7907;51.368;6.730;2022-07-29T15:54:46;35.70;39.70
15615;DHT22;7907;51.368;6.730;2022-07-29T15:57:13;36.10;39.50
15615;DHT22;7907;51.368;6.730;2022-07-29T15:59:40;35.90;39.80
15615;DHT22;7907;51.368;6.730;2022-07-29T16:02:07;36.30;40.10
15615;DHT22;7907;51.368;6.730;2022-07-29T16:04:35;36.50;39.80
15615;DHT22;7907;51.368;6.730;2022-07-29T16:07:02;36.60;39.70
15615;DHT22;7907;51.368;6.730;2022-07-29T16:09:31;35.90;40.90
15615;DHT22;7907;51.368;6.730;2022-07-29T16:11:58;35.60;41.10
15615;DHT22;7907;51.368;6.730;2022-07-29T16:14:25;35.10;41.90
15615;DHT22;7907;51.368;6.730;2022-07-29T16:16:52;34.70;42.70
15615;DHT22;7907;51.368;6.730;2022-07-29T16:19:19;34.60;43.10
15615;DHT22;7907;51.368;6.730;2022-07-29T16:21:46;34.50;43.00
15615;DHT22;7907;51.368;6.730;2022-07-29T16:24:13;34.30;43.70
15615;DHT22;7907;51.368;6.730;2022-07-29T16:26:42;34.00;44.30
15615;DHT22;7907;51.368;6.730;2022-07-29T16:29:09;33.60;44.80
15615;DHT22;7907;51.368;6.730;2022-07-29T16:31:36;33.00;46.10
15615;DHT22;7907;51.368;6.730;2022-07-29T16:34:04;32.60;46.90
15615;DHT22;7907;51.368;6.730;2022-07-29T16:36:31;32.20;47.70
15615;DHT22;7907;51.368;6.730;2022-07-29T16:38:58;31.90;48.00
15615;DHT22;7907;51.368;6.730;2022-07-29T16:41:25;31.70;48.80
15615;DHT22;7907;51.368;6.730;2022-07-29T16:43:55;31.60;49.40
15615;DHT22;7907;51.368;6.730;2022-07-29T16:46:22;31.20;49.50
15615;DHT22;7907;51.368;6.730;2022-07-29T16:48:49;31.10;49.60
15615;DHT22;7907;51.368;6.730;2022-07-29T16:51:16;30.50;50.50
15615;DHT22;7907;51.368;6.730;2022-07-29T16:53:49;30.30;51.10
15615;DHT22;7907;51.368;6.730;2022-07-29T16:56:16;30.00;51.80
15615;DHT22;7907;51.368;6.730;2022-07-29T16:58:46;29.70;52.30
15615;DHT22;7907;51.368;6.730;2022-07-29T17:01:14;29.30;53.20
15615;DHT22;7907;51.368;6.730;2022-07-29T17:03:44;28.90;53.90
15615;DHT22;7907;51.368;6.730;2022-07-29T17:06:29;28.60;55.10
15615;DHT22;7907;51.368;6.730;2022-07-29T17:08:57;28.40;54.80
15615;DHT22;7907;51.368;6.730;2022-07-29T17:11:24;28.10;55.10
15615;DHT22;7907;51.368;6.730;2022-07-29T17:13:53;28.00;55.40
15615;DHT22;7907;51.368;6.730;2022-07-29T17:16:24;27.80;56.20
15615;DHT22;7907;51.368;6.730;2022-07-29T17:18:52;27.60;56.30
15615;DHT22;7907;51.368;6.730;2022-07-29T17:21:20;27.50;56.70
15615;DHT22;7907;51.368;6.730;2022-07-29T17:23:57;27.30;57.20
15615;DHT22;7907;51.368;6.730;2022-07-29T17:26:24;27.10;57.80
15615;DHT22;7907;51.368;6.730;2022-07-29T17:28:52;26.80;57.60
15615;DHT22;7907;51.368;6.730;2022-07-29T17:31:19;26.70;58.20
15615;DHT22;7907;51.368;6.730;2022-07-29T17:33:48;26.60;58.70
15615;DHT22;7907;51.368;6.730;2022-07-29T17:36:15;26.60;59.10
15615;DHT22;7907;51.368;6.730;2022-07-29T17:38:56;26.50;58.80
15615;DHT22;7907;51.368;6.730;2022-07-29T17:41:24;26.40;59.20
15615;DHT22;7907;51.368;6.730;2022-07-29T17:43:52;26.40;59.20
15615;DHT22;7907;51.368;6.730;2022-07-29T17:46:20;26.30;59.20
15615;DHT22;7907;51.368;6.730;2022-07-29T17:48:50;26.30;59.40
15615;DHT22;7907;51.368;6.730;2022-07-29T17:51:17;26.20;60.10
15615;DHT22;7907;51.368;6.730;2022-07-29T17:53:44;26.20;59.60
15615;DHT22;7907;51.368;6.730;2022-07-29T17:56:28;26.20;59.60
15615;DHT22;7907;51.368;6.730;2022-07-29T17:58:55;26.10;59.70
15615;DHT22;7907;51.368;6.730;2022-07-29T18:01:25;26.10;59.80
15615;DHT22;7907;51.368;6.730;2022-07-29T18:03:54;26.00;59.90
15615;DHT22;7907;51.368;6.730;2022-07-29T18:06:21;26.00;59.70
15615;DHT22;7907;51.368;6.730;2022-07-29T18:08:48;25.90;59.60
15615;DHT22;7907;51.368;6.730;2022-07-29T18:11:15;25.70;60.00
15615;DHT22;7907;51.368;6.730;2022-07-29T18:13:42;25.60;60.00
15615;DHT22;7907;51.368;6.730;2022-07-29T18:16:09;25.60;60.00
15615;DHT22;7907;51.368;6.730;2022-07-29T18:18:36;25.60;60.30
15615;DHT22;7907;51.368;6.730;2022-07-29T18:21:05;25.50;60.30
15615;DHT22;7907;51.368;6.730;2022-07-29T18:23:32;25.50;60.60
15615;DHT22;7907;51.368;6.730;2022-07-29T18:26:00;25.50;60.80
15615;DHT22;7907;51.368;6.730;2022-07-29T18:28:28;25.40;61.00
15615;DHT22;7907;51.368;6.730;2022-07-29T18:30:57;25.40;61.30
15615;DHT22;7907;51.368;6.730;2022-07-29T18:33:24;25.30;61.60
15615;DHT22;7907;51.368;6.730;2022-07-29T18:35:51;25.20;61.60
15615;DHT22;7907;51.368;6.730;2022-07-29T18:38:20;25.30;62.00
15615;DHT22;7907;51.368;6.730;2022-07-29T18:40:47;25.20;62.10
15615;DHT22;7907;51.368;6.730;2022-07-29T18:43:14;25.20;61.80
15615;DHT22;7907;51.368;6.730;2022-07-29T18:45:41;25.20;62.30